Terminal Aerodrome Forecast
Issued by NWS

Home | Current Version | Previous Version | Text Only | Print | Product List | Glossary On
Versions: 1 2 3 4 5 6 7 8 9 10 11 12 13 14 15 16 17 18 19 20 21
505
FTUS43 KPAH 180340 AAC
TAFCGI
TAF AMD
KCGI 180340Z 1804/1824 VRB04KT 1SM BR FEW020
      TEMPO 1804/1808 1/4SM FG VV001
     FM180800 00000KT 1SM BR SKC
     FM181100 12003KT 2SM BR SKC
     FM181300 14003KT P6SM SCT200
     FM181800 14008KT P6SM SCT200=

USA.gov is the U.S. government's official web portal to all federal, state and local government web resources and services.